Time;durP1;ratioP1;P1;durP2;ratioP2;P2;SDS_P1;SDS_P2;PMS_P1;PMS_P2;Temp;Humidity;BMP_temperature;BMP_pressure;BME280_temperature;BME280_humidity;BME280_pressure;Samples;Min_cycle;Max_cycle;Signal;HPM_P1;HPM_P2
2022/11/11 00:00:47;;;;;;;602.03;567.87;;;4.60;45.60;;;;;;5057773;28;20416;-73
2022/11/11 00:03:14;;;;;;;567.83;535.30;;;4.60;45.40;;;;;;5057555;28;20197;-72
2022/11/11 00:05:39;;;;;;;566.53;534.73;;;4.50;45.20;;;;;;5057765;28;20257;-72
2022/11/11 00:08:05;;;;;;;316.10;296.60;;;4.50;45.50;;;;;;5056530;28;20996;-72
2022/11/11 00:10:30;;;;;;;567.80;534.97;;;4.50;46.60;;;;;;5058158;28;20669;-73
2022/11/11 00:13:00;;;;;;;538.13;506.03;;;4.60;46.10;;;;;;5057598;28;20546;-73
2022/11/11 00:15:26;;;;;;;491.63;465.07;;;4.70;45.60;;;;;;5057806;28;20194;-72
2022/11/11 00:26:09;;;;;;;250.33;233.57;;;4.80;44.10;;;;;;5057251;28;20412;-73
2022/11/11 00:28:34;;;;;;;308.10;287.50;;;4.60;43.70;;;;;;5057585;28;20417;-72
2022/11/11 00:31:05;;;;;;;647.47;606.27;;;4.50;43.10;;;;;;5057286;28;20413;-72
2022/11/11 00:33:31;;;;;;;535.00;505.47;;;4.50;44.70;;;;;;5056887;28;20643;-73
2022/11/11 00:35:57;;;;;;;493.10;466.63;;;4.50;43.60;;;;;;5055801;28;20463;-73
2022/11/11 00:39:05;;;;;;;401.27;377.90;;;4.50;43.20;;;;;;5057244;28;20493;-72
2022/11/11 00:41:13;;;;;;;376.85;352.67;;;4.50;43.30;;;;;;5052555;28;20427;-73
2022/11/11 00:43:39;;;;;;;460.83;432.95;;;4.50;43.50;;;;;;5060681;28;20190;-72
2022/11/11 00:51:33;;;;;;;532.25;501.33;;;4.40;43.70;;;;;;5060705;28;20191;-73
2022/11/11 00:53:58;;;;;;;480.10;452.30;;;4.30;42.90;;;;;;5059840;28;20200;-71
2022/11/11 00:56:24;;;;;;;310.80;290.80;;;4.40;43.20;;;;;;5060578;28;20239;-73
2022/11/11 00:58:50;;;;;;;302.80;282.60;;;4.40;42.70;;;;;;5060644;28;20178;-72
2022/11/11 01:01:16;;;;;;;323.53;303.03;;;4.30;42.90;;;;;;5060483;28;20646;-73
2022/11/11 01:03:41;;;;;;;370.67;346.33;;;4.30;43.30;;;;;;5060203;28;20196;-73
2022/11/11 01:06:08;;;;;;;651.47;612.33;;;4.30;43.30;;;;;;5060991;28;20432;-72
2022/11/11 01:08:34;;;;;;;556.45;522.83;;;4.30;42.60;;;;;;5060999;28;20503;-73
2022/11/11 01:10:59;;;;;;;662.63;623.33;;;4.30;42.60;;;;;;5060336;28;20267;-73
2022/11/11 01:13:31;;;;;;;492.73;465.67;;;4.20;42.50;;;;;;5060567;28;20300;-72
2022/11/11 01:15:59;;;;;;;409.42;381.48;;;4.20;42.50;;;;;;5060230;28;20198;-72
2022/11/11 01:18:26;;;;;;;529.87;499.90;;;4.10;42.70;;;;;;5059053;28;20220;-72
2022/11/11 01:21:16;;;;;;;607.17;572.42;;;4.10;42.40;;;;;;5060380;28;20416;-72
2022/11/11 01:23:44;;;;;;;635.65;599.53;;;4.20;42.50;;;;;;5052332;28;20246;-73
2022/11/11 01:26:24;;;;;;;97.45;86.82;;;4.10;42.30;;;;;;5059777;28;20180;-73
2022/11/11 01:28:52;;;;;;;607.35;567.42;;;4.10;42.50;;;;;;5060450;28;20204;-72
2022/11/11 01:31:20;;;;;;;252.70;235.57;;;4.00;41.80;;;;;;5059862;28;20172;-73
2022/11/11 01:33:46;;;;;;;323.58;301.40;;;4.00;42.30;;;;;;5059308;28;20568;-72
2022/11/11 01:36:21;;;;;;;531.72;496.13;;;4.00;42.90;;;;;;5058276;28;20233;-72
2022/11/11 01:38:51;;;;;;;669.95;626.38;;;4.00;42.40;;;;;;5059294;28;20169;-72
2022/11/11 01:41:32;;;;;;;642.00;600.58;;;4.00;42.30;;;;;;5059424;28;20175;-73
2022/11/11 01:44:17;;;;;;;469.25;437.50;;;3.90;42.30;;;;;;5059620;28;20688;-73
2022/11/11 01:46:57;;;;;;;605.63;566.15;;;3.90;43.50;;;;;;5058855;28;20181;-72
2022/11/11 01:49:53;;;;;;;744.35;694.35;;;3.90;42.80;;;;;;5059423;28;20178;-73
2022/11/11 01:52:33;;;;;;;580.72;544.30;;;3.90;42.80;;;;;;5058722;28;20177;-73
2022/11/11 01:55:12;;;;;;;687.85;644.40;;;3.80;42.60;;;;;;5059076;28;20197;-72
2022/11/11 01:57:45;;;;;;;473.92;441.08;;;3.80;42.90;;;;;;5058804;28;20267;-72
2022/11/11 02:00:15;;;;;;;450.13;419.17;;;3.80;43.30;;;;;;5059496;28;20184;-73
2022/11/11 02:02:54;;;;;;;659.22;617.45;;;3.80;42.10;;;;;;5058519;28;20169;-72
2022/11/11 02:08:33;;;;;;;433.08;403.00;;;3.70;42.90;;;;;;5059342;28;20210;-73
2022/11/11 02:11:11;;;;;;;710.55;665.05;;;3.70;42.80;;;;;;5059148;28;20176;-72
2022/11/11 02:16:23;;;;;;;653.55;611.40;;;3.60;42.00;;;;;;5058685;28;20216;-72
2022/11/11 02:18:49;;;;;;;452.98;424.15;;;3.70;42.90;;;;;;5058891;28;20173;-73
2022/11/11 02:21:27;;;;;;;567.63;528.50;;;3.60;42.30;;;;;;5058631;28;20782;-72
2022/11/11 02:24:11;;;;;;;527.72;495.63;;;3.60;44.10;;;;;;5058621;28;20454;-72
2022/11/11 02:26:38;;;;;;;623.45;582.63;;;3.60;43.30;;;;;;5059071;28;20179;-72
2022/11/11 02:29:09;;;;;;;145.23;132.40;;;3.60;42.50;;;;;;5058228;28;20186;-72
2022/11/11 02:31:35;;;;;;;445.15;415.38;;;3.60;44.80;;;;;;5058739;28;20675;-72
2022/11/11 02:34:00;;;;;;;235.73;218.60;;;3.60;42.70;;;;;;5057920;28;20206;-73
2022/11/11 02:36:26;;;;;;;195.13;180.77;;;3.50;41.90;;;;;;5058279;28;20258;-73
2022/11/11 02:38:52;;;;;;;618.13;578.90;;;3.40;42.50;;;;;;5058728;28;20202;-73
2022/11/11 02:44:02;;;;;;;524.05;488.63;;;3.40;43.70;;;;;;5058327;28;20199;-72
2022/11/11 02:46:28;;;;;;;527.85;492.38;;;3.30;43.90;;;;;;5057896;28;20643;-72
2022/11/11 02:48:53;;;;;;;492.57;459.57;;;3.30;44.30;;;;;;5058840;28;20222;-72
2022/11/11 02:51:19;;;;;;;413.63;387.70;;;3.30;44.60;;;;;;5058284;28;20270;-72
2022/11/11 02:53:45;;;;;;;606.93;567.07;;;3.30;45.30;;;;;;5057864;28;20203;-72
2022/11/11 02:56:10;;;;;;;689.73;644.63;;;3.30;45.50;;;;;;5058377;28;20457;-73
2022/11/11 02:58:36;;;;;;;637.70;594.03;;;3.30;45.00;;;;;;5058046;28;20178;-73
2022/11/11 03:01:01;;;;;;;702.57;656.43;;;3.30;44.60;;;;;;5057960;28;20197;-73
2022/11/11 03:03:27;;;;;;;706.63;659.13;;;3.30;43.90;;;;;;5057721;28;20232;-73
2022/11/11 03:05:53;;;;;;;561.33;522.63;;;3.30;45.10;;;;;;5057801;28;20183;-72
2022/11/11 03:08:18;;;;;;;648.30;603.27;;;3.40;44.80;;;;;;5057742;28;20185;-73
2022/11/11 03:10:44;;;;;;;752.27;701.43;;;3.40;43.80;;;;;;5058112;28;20187;-71
2022/11/11 03:13:09;;;;;;;565.30;527.60;;;3.40;43.30;;;;;;5057250;28;20181;-73
2022/11/11 03:15:35;;;;;;;684.60;641.10;;;3.40;43.00;;;;;;5057733;28;20196;-72
2022/11/11 03:18:00;;;;;;;706.83;659.07;;;3.30;42.80;;;;;;5056496;28;20185;-75
2022/11/11 03:23:13;;;;;;;752.70;702.33;;;3.30;42.90;;;;;;5057280;28;20194;-72
2022/11/11 03:25:41;;;;;;;521.50;487.58;;;3.30;42.70;;;;;;5057160;28;20184;-72
2022/11/11 03:28:07;;;;;;;787.33;734.40;;;3.30;41.70;;;;;;5057911;28;20172;-72
2022/11/11 03:30:33;;;;;;;636.35;593.80;;;3.30;42.80;;;;;;5057517;28;20173;-72
2022/11/11 03:32:59;;;;;;;626.50;584.83;;;3.30;42.50;;;;;;5056663;28;20689;-72
2022/11/11 03:35:25;;;;;;;733.28;685.63;;;3.30;41.80;;;;;;5056858;28;20176;-72
2022/11/11 03:40:34;;;;;;;703.33;655.58;;;3.20;42.50;;;;;;5056586;28;20264;-71
2022/11/11 03:43:00;;;;;;;658.00;611.77;;;3.30;42.10;;;;;;5056642;28;20700;-73
2022/11/11 03:45:26;;;;;;;779.87;729.60;;;3.20;41.70;;;;;;5056961;28;20226;-73
2022/11/11 03:47:53;;;;;;;367.80;340.97;;;3.20;41.70;;;;;;5056788;28;20178;-73
2022/11/11 03:50:19;;;;;;;318.35;295.80;;;3.20;42.30;;;;;;5056838;28;20173;-71
2022/11/11 03:52:45;;;;;;;797.17;742.63;;;3.20;41.70;;;;;;5056137;28;20174;-71
2022/11/11 03:55:11;;;;;;;753.70;701.73;;;3.10;41.70;;;;;;5056092;28;20203;-73
2022/11/11 03:57:41;;;;;;;716.50;668.07;;;3.10;42.90;;;;;;5056369;28;20168;-73
2022/11/11 04:00:07;;;;;;;623.33;583.03;;;3.20;41.90;;;;;;5056375;28;20224;-73
2022/11/11 04:10:45;;;;;;;350.90;325.45;;;3.10;42.20;;;;;;5056839;28;20600;-73
2022/11/11 04:16:04;;;;;;;362.83;337.15;;;2.90;42.70;;;;;;5061176;28;20210;-71
2022/11/11 04:21:42;;;;;;;527.25;489.95;;;2.80;44.80;;;;;;5061125;28;20272;-73
2022/11/11 04:25:47;;;;;;;534.08;498.02;;;2.80;44.20;;;;;;5059802;28;20278;-72
2022/11/11 04:26:49;;;;;;;438.55;409.23;;;2.70;43.40;;;;;;5060700;28;20190;-72
2022/11/11 04:29:27;;;;;;;690.10;643.53;;;2.70;44.50;;;;;;5060310;28;20202;-73
2022/11/11 04:34:42;;;;;;;485.08;452.30;;;2.70;45.80;;;;;;5060783;28;20233;-73
2022/11/11 04:37:08;;;;;;;544.30;506.77;;;2.70;44.90;;;;;;5060224;28;20237;-73
2022/11/11 04:42:17;;;;;;;383.85;355.35;;;2.90;46.40;;;;;;5060558;28;20215;-72
2022/11/11 04:47:27;;;;;;;653.90;608.70;;;2.90;45.20;;;;;;5059945;28;20237;-72
2022/11/11 04:49:52;;;;;;;664.90;618.90;;;2.80;45.20;;;;;;5059807;28;20582;-73
2022/11/11 04:52:30;;;;;;;580.97;538.07;;;2.80;46.30;;;;;;5058415;28;20618;-73
2022/11/11 04:57:42;;;;;;;352.90;326.88;;;3.00;46.10;;;;;;5060013;28;20201;-73
2022/11/11 05:00:10;;;;;;;589.60;549.72;;;3.10;46.10;;;;;;5059560;28;20176;-73
2022/11/11 05:05:21;;;;;;;471.60;437.75;;;3.10;45.40;;;;;;5059628;28;20229;-73
2022/11/11 05:10:31;;;;;;;713.47;667.17;;;3.10;45.10;;;;;;5060091;28;20183;-71
2022/11/11 05:21:19;;;;;;;685.07;636.33;;;3.10;44.80;;;;;;5059029;28;20176;-73
2022/11/11 05:21:20;;;;;;;704.03;657.10;;;3.10;44.10;;;;;;5059515;28;20197;-73
2022/11/11 05:26:30;;;;;;;702.22;655.08;;;3.00;44.00;;;;;;5054729;28;20240;-69
2022/11/11 05:28:56;;;;;;;741.60;690.17;;;3.00;43.80;;;;;;5036580;28;20209;-69
2022/11/11 05:31:22;;;;;;;740.60;690.93;;;2.90;44.00;;;;;;5036517;28;20651;-70
2022/11/11 05:33:47;;;;;;;556.03;519.17;;;2.90;44.10;;;;;;5053996;28;20237;-70
2022/11/11 05:36:13;;;;;;;599.73;560.10;;;2.80;43.50;;;;;;5054226;28;20199;-70
2022/11/11 05:38:38;;;;;;;607.57;565.77;;;2.70;44.10;;;;;;5054123;28;20173;-70
2022/11/11 05:41:04;;;;;;;514.27;479.97;;;2.70;43.80;;;;;;5054484;28;20169;-70
2022/11/11 05:43:30;;;;;;;559.17;521.20;;;2.70;44.50;;;;;;5053868;28;20312;-70
2022/11/11 05:45:56;;;;;;;337.23;313.50;;;2.70;44.90;;;;;;5054248;28;20703;-70
2022/11/11 05:48:21;;;;;;;554.83;517.40;;;2.70;44.80;;;;;;5052921;28;20590;-70
2022/11/11 05:50:47;;;;;;;450.07;422.27;;;2.60;44.30;;;;;;5053925;28;20251;-70
2022/11/11 05:53:12;;;;;;;452.03;424.00;;;2.60;45.60;;;;;;5053475;28;20211;-70
2022/11/11 05:55:38;;;;;;;448.67;417.40;;;2.60;46.20;;;;;;5053576;28;20663;-70
2022/11/11 05:58:03;;;;;;;530.73;498.03;;;2.60;45.30;;;;;;5053730;28;20183;-70
2022/11/11 06:00:29;;;;;;;724.40;673.23;;;2.60;46.20;;;;;;5053612;28;20167;-70
2022/11/11 06:03:02;;;;;;;747.93;696.33;;;2.70;46.20;;;;;;5053361;28;20673;-70
2022/11/11 06:05:27;;;;;;;752.00;699.33;;;2.70;46.20;;;;;;5053507;28;20199;-70
2022/11/11 06:07:53;;;;;;;664.93;619.53;;;2.70;45.90;;;;;;5053469;28;20178;-70
2022/11/11 06:10:31;;;;;;;740.83;690.53;;;2.70;44.40;;;;;;5052227;28;20191;-70
2022/11/11 06:13:09;;;;;;;647.97;604.85;;;2.80;44.20;;;;;;5053247;28;20405;-70
2022/11/11 06:15:39;;;;;;;574.33;532.75;;;2.80;44.00;;;;;;5052057;28;20297;-70
2022/11/11 06:18:06;;;;;;;675.97;628.53;;;2.80;43.50;;;;;;5052146;28;20205;-70
2022/11/11 06:20:34;;;;;;;238.40;220.10;;;2.80;43.70;;;;;;5051954;28;20667;-70
2022/11/11 06:23:00;;;;;;;384.83;356.20;;;2.80;43.90;;;;;;5051553;28;20184;-70
2022/11/11 06:28:16;;;;;;;743.15;692.33;;;3.00;44.30;;;;;;5053526;28;20227;-70
2022/11/11 06:30:43;;;;;;;371.80;342.48;;;3.00;43.70;;;;;;5051859;28;20187;-71
2022/11/11 06:33:08;;;;;;;374.77;349.25;;;3.00;44.50;;;;;;5052798;28;20172;-71
2022/11/11 06:35:35;;;;;;;312.20;289.33;;;3.00;44.10;;;;;;5052277;28;20211;-71
2022/11/11 06:38:02;;;;;;;759.97;708.22;;;3.00;44.40;;;;;;5051571;28;20805;-71
2022/11/11 06:40:29;;;;;;;765.97;716.45;;;3.00;44.10;;;;;;5053323;28;20574;-69
2022/11/11 06:42:55;;;;;;;737.67;687.53;;;3.10;43.70;;;;;;5052765;28;20176;-70
2022/11/11 06:45:26;;;;;;;705.50;656.25;;;3.10;44.20;;;;;;5051434;28;20256;-69
2022/11/11 06:47:51;;;;;;;748.35;696.22;;;3.20;43.80;;;;;;5052874;28;20176;-69
2022/11/11 06:50:17;;;;;;;653.20;606.43;;;3.20;44.20;;;;;;5051585;28;20500;-69
2022/11/11 06:52:43;;;;;;;514.30;476.90;;;3.20;45.00;;;;;;5052461;28;20200;-69
2022/11/11 06:55:09;;;;;;;730.30;682.30;;;3.30;44.70;;;;;;5052593;28;20439;-69
2022/11/11 06:57:35;;;;;;;432.80;402.92;;;3.30;45.30;;;;;;5052509;28;20911;-69
2022/11/11 07:00:01;;;;;;;708.70;660.90;;;3.30;45.60;;;;;;5052616;28;20222;-69
2022/11/11 07:02:26;;;;;;;451.97;420.87;;;3.30;45.00;;;;;;5052283;28;20762;-69
2022/11/11 07:04:52;;;;;;;288.63;268.53;;;3.40;45.10;;;;;;5052768;28;20637;-69
2022/11/11 07:07:17;;;;;;;592.03;552.67;;;3.40;44.90;;;;;;5052401;28;20268;-69
2022/11/11 07:09:43;;;;;;;701.90;654.03;;;3.40;45.10;;;;;;5051184;28;20210;-71
2022/11/11 07:12:08;;;;;;;378.70;353.93;;;3.50;45.90;;;;;;5051909;28;20189;-70
2022/11/11 07:14:34;;;;;;;591.97;554.83;;;3.60;45.80;;;;;;5052292;28;20258;-70
2022/11/11 07:16:59;;;;;;;668.47;625.93;;;3.70;46.40;;;;;;5050982;28;20213;-70
2022/11/11 07:19:25;;;;;;;723.13;676.67;;;3.80;46.80;;;;;;5051215;28;20186;-70
2022/11/11 07:21:51;;;;;;;656.47;614.63;;;3.90;46.70;;;;;;5050734;28;20188;-70
2022/11/11 07:24:16;;;;;;;716.63;672.33;;;4.10;46.10;;;;;;5050788;28;20298;-70
2022/11/11 07:26:42;;;;;;;533.87;499.90;;;4.20;45.70;;;;;;5052078;28;20177;-70
2022/11/11 07:29:08;;;;;;;692.53;649.43;;;4.40;45.50;;;;;;5052187;28;20188;-70
2022/11/11 07:31:34;;;;;;;168.85;155.02;;;4.50;44.80;;;;;;5052059;28;20180;-70
2022/11/11 07:33:59;;;;;;;680.57;637.57;;;4.60;44.70;;;;;;5051713;28;20279;-69
2022/11/11 07:36:25;;;;;;;556.80;523.00;;;4.70;42.50;;;;;;5050692;28;20211;-70
2022/11/11 07:38:50;;;;;;;238.40;221.57;;;4.80;43.00;;;;;;5051853;28;20174;-70
2022/11/11 07:41:16;;;;;;;451.03;422.87;;;4.90;41.10;;;;;;5050518;28;20182;-70
2022/11/11 07:43:41;;;;;;;296.20;275.47;;;5.00;39.50;;;;;;5055473;28;20198;-70
2022/11/11 07:46:07;;;;;;;629.73;590.37;;;5.00;39.10;;;;;;5058187;28;20179;-70
2022/11/11 07:48:33;;;;;;;640.47;601.17;;;5.10;39.30;;;;;;5059028;28;20191;-71
2022/11/11 07:50:59;;;;;;;509.53;475.67;;;5.10;40.40;;;;;;5058690;28;20690;-70
2022/11/11 07:53:27;;;;;;;346.58;323.88;;;5.20;40.00;;;;;;5058332;28;20178;-72
2022/11/11 07:55:53;;;;;;;682.27;637.37;;;5.30;40.00;;;;;;5052565;28;20198;-69
2022/11/11 07:58:18;;;;;;;637.00;595.97;;;5.40;40.10;;;;;;5051767;28;20416;-69
2022/11/11 08:00:44;;;;;;;577.57;543.40;;;5.60;39.90;;;;;;5051707;28;20419;-69
2022/11/11 08:03:10;;;;;;;294.30;275.13;;;5.80;38.80;;;;;;5051264;28;20251;-70
2022/11/11 08:05:35;;;;;;;362.77;339.10;;;5.90;38.80;;;;;;5053520;28;20253;-69
2022/11/11 08:08:06;;;;;;;298.57;277.63;;;6.10;39.00;;;;;;5051559;28;20258;-69
2022/11/11 08:10:32;;;;;;;588.37;552.70;;;6.10;35.60;;;;;;5051515;28;20633;-69
2022/11/11 08:15:42;;;;;;;603.80;566.13;;;6.30;35.10;;;;;;5051604;28;21108;-69
2022/11/11 08:18:08;;;;;;;582.23;547.30;;;6.50;34.20;;;;;;5051499;28;20413;-70
2022/11/11 08:20:34;;;;;;;426.00;399.67;;;6.60;33.30;;;;;;5051667;28;20308;-70
2022/11/11 08:22:59;;;;;;;578.93;545.30;;;6.70;33.60;;;;;;5051416;28;20401;-70
2022/11/11 08:25:25;;;;;;;351.30;327.60;;;6.80;33.60;;;;;;5051477;28;20450;-70
2022/11/11 08:28:03;;;;;;;501.60;469.37;;;6.90;32.00;;;;;;5051543;28;20172;-70
2022/11/11 08:30:29;;;;;;;217.27;200.10;;;7.10;31.30;;;;;;5051540;28;20412;-70
2022/11/11 08:33:04;;;;;;;341.73;317.83;;;7.10;29.70;;;;;;5051053;28;20423;-70
2022/11/11 08:35:30;;;;;;;531.57;495.17;;;6.90;29.50;;;;;;5050069;28;20433;-70
2022/11/11 08:38:01;;;;;;;293.80;272.80;;;6.90;31.10;;;;;;5050041;28;20486;-70
2022/11/11 08:40:27;;;;;;;232.70;214.33;;;6.90;29.00;;;;;;5051446;28;20938;-70
2022/11/11 08:42:56;;;;;;;404.23;375.70;;;6.90;29.50;;;;;;5051296;28;20489;-70
2022/11/11 08:45:23;;;;;;;426.03;397.13;;;7.00;28.00;;;;;;5049994;28;20199;-70
2022/11/11 08:47:48;;;;;;;543.80;508.20;;;7.10;28.00;;;;;;5050090;28;20438;-71
2022/11/11 08:50:14;;;;;;;706.40;659.97;;;7.30;29.90;;;;;;5051205;28;20846;-71
2022/11/11 08:52:46;;;;;;;337.23;312.57;;;7.40;28.80;;;;;;5051073;28;20172;-71
2022/11/11 08:55:11;;;;;;;283.13;263.63;;;7.50;29.90;;;;;;5049909;28;20205;-71
2022/11/11 08:57:37;;;;;;;742.17;692.70;;;7.60;28.70;;;;;;5049913;28;20465;-70
2022/11/11 09:00:05;;;;;;;301.23;278.60;;;7.70;26.70;;;;;;5053091;28;20175;-70
2022/11/11 09:02:30;;;;;;;518.97;483.80;;;7.70;26.30;;;;;;5054641;28;20189;-70
2022/11/11 09:04:56;;;;;;;582.43;542.70;;;7.70;26.70;;;;;;5053691;28;20431;-71
2022/11/11 09:07:23;;;;;;;256.17;236.63;;;7.80;27.40;;;;;;5053462;28;20707;-70
2022/11/11 09:09:48;;;;;;;485.47;449.47;;;7.80;26.10;;;;;;5053640;28;20182;-70
2022/11/11 09:12:14;;;;;;;382.87;354.97;;;7.70;27.20;;;;;;5054779;28;20422;-70
2022/11/11 09:14:39;;;;;;;480.67;448.20;;;7.70;26.90;;;;;;5055164;28;20201;-71
2022/11/11 09:17:06;;;;;;;323.97;300.07;;;7.60;27.70;;;;;;5055185;28;20296;-71
2022/11/11 09:19:32;;;;;;;546.63;508.10;;;7.50;27.70;;;;;;5055433;28;20555;-71
2022/11/11 09:21:57;;;;;;;266.80;247.50;;;7.50;28.30;;;;;;5055330;28;20403;-71
2022/11/11 09:24:23;;;;;;;180.60;164.73;;;7.50;27.70;;;;;;5055265;28;20618;-71
2022/11/11 09:26:49;;;;;;;357.83;331.93;;;7.40;28.00;;;;;;5053765;28;20651;-71
2022/11/11 09:29:15;;;;;;;276.83;254.33;;;7.30;29.10;;;;;;5054741;28;20184;-71
2022/11/11 09:31:40;;;;;;;383.13;355.87;;;7.30;28.90;;;;;;5054664;28;20460;-71
2022/11/11 09:34:06;;;;;;;278.17;256.67;;;7.20;29.80;;;;;;5054344;28;20439;-71
2022/11/11 09:36:32;;;;;;;735.20;686.77;;;7.30;29.80;;;;;;5055972;28;20591;-71
2022/11/11 09:38:58;;;;;;;427.83;396.90;;;7.40;29.30;;;;;;5057266;28;20223;-71
2022/11/11 09:42:01;;;;;;;341.83;317.10;;;7.40;29.60;;;;;;5057021;28;20405;-71
2022/11/11 09:44:49;;;;;;;247.93;228.70;;;7.50;28.70;;;;;;5056143;28;20559;-71
2022/11/11 09:47:37;;;;;;;176.83;161.97;;;7.60;28.70;;;;;;5057168;28;20415;-71
2022/11/11 09:50:25;;;;;;;594.07;553.27;;;7.70;28.80;;;;;;5055391;28;20416;-71
2022/11/11 09:52:50;;;;;;;257.87;236.90;;;7.80;29.30;;;;;;5054183;28;20427;-71
2022/11/11 09:55:18;;;;;;;717.93;668.27;;;8.00;28.00;;;;;;5055363;28;20818;-71
2022/11/11 09:58:03;;;;;;;417.23;387.37;;;8.20;27.90;;;;;;5054967;28;20205;-71
2022/11/11 10:00:32;;;;;;;502.97;469.93;;;8.50;26.80;;;;;;5055503;28;20415;-71
2022/11/11 10:03:08;;;;;;;502.10;465.37;;;8.80;26.70;;;;;;5055937;28;20423;-71
2022/11/11 10:06:02;;;;;;;625.37;579.10;;;8.90;25.80;;;;;;5055992;28;20773;-71
2022/11/11 10:09:12;;;;;;;457.60;422.63;;;9.10;26.10;;;;;;5056006;28;20467;-71
2022/11/11 10:11:46;;;;;;;283.60;259.97;;;9.50;24.50;;;;;;5026836;28;20413;-71
2022/11/11 10:14:12;;;;;;;375.30;344.90;;;9.60;23.10;;;;;;5055918;28;20428;-71
2022/11/11 10:16:54;;;;;;;426.33;391.93;;;9.70;22.80;;;;;;5056970;28;20492;-70
2022/11/11 10:19:44;;;;;;;357.63;328.50;;;10.00;22.20;;;;;;5055003;28;20260;-70
2022/11/11 10:22:20;;;;;;;349.77;320.77;;;10.20;20.00;;;;;;5055360;28;20413;-71
2022/11/11 10:25:02;;;;;;;461.03;422.80;;;10.40;20.20;;;;;;5054434;28;20531;-71
2022/11/11 10:27:29;;;;;;;387.03;354.57;;;10.50;19.50;;;;;;5055221;28;20407;-71
2022/11/11 10:29:56;;;;;;;343.33;314.80;;;10.60;18.90;;;;;;5056154;28;20947;-72
2022/11/11 10:32:29;;;;;;;395.00;362.43;;;10.50;19.10;;;;;;5055726;28;20427;-70
2022/11/11 10:35:13;;;;;;;234.27;213.27;;;10.40;19.40;;;;;;5056879;28;20468;-71
2022/11/11 10:37:41;;;;;;;573.87;527.07;;;10.40;19.80;;;;;;5055194;28;20894;-71
2022/11/11 10:40:16;;;;;;;260.07;236.83;;;10.30;20.30;;;;;;5055149;28;20433;-70
2022/11/11 10:42:41;;;;;;;353.10;322.90;;;10.40;20.70;;;;;;5056652;28;20764;-71
2022/11/11 10:45:26;;;;;;;509.80;467.57;;;10.40;20.10;;;;;;5056435;28;20443;-71
2022/11/11 10:48:01;;;;;;;415.33;380.63;;;10.50;20.00;;;;;;5055349;28;20242;-70
2022/11/11 10:50:35;;;;;;;498.93;459.37;;;10.50;20.20;;;;;;5056443;28;20435;-71
2022/11/11 10:53:31;;;;;;;456.50;419.30;;;10.50;20.70;;;;;;5056019;28;20819;-70
2022/11/11 10:56:23;;;;;;;305.73;280.17;;;10.60;20.20;;;;;;5055300;28;20445;-71
2022/11/11 10:59:13;;;;;;;404.03;370.57;;;10.50;20.30;;;;;;5055492;28;20405;-71
2022/11/11 11:02:04;;;;;;;361.43;330.77;;;10.60;20.70;;;;;;5056617;28;20389;-71
2022/11/11 11:04:41;;;;;;;628.30;578.13;;;10.70;20.90;;;;;;5056118;28;20906;-70
2022/11/11 11:07:12;;;;;;;321.97;294.20;;;10.80;20.70;;;;;;5054994;28;21016;-71
2022/11/11 11:09:55;;;;;;;423.90;390.23;;;11.00;20.60;;;;;;5055523;28;20436;-71
2022/11/11 11:12:49;;;;;;;403.47;370.50;;;11.10;20.10;;;;;;5056762;28;20467;-71
2022/11/11 11:15:22;;;;;;;317.20;292.30;;;11.20;20.30;;;;;;5055501;28;20812;-71
2022/11/11 11:17:54;;;;;;;442.03;404.80;;;11.30;20.00;;;;;;5056010;28;20971;-71
2022/11/11 11:20:20;;;;;;;305.57;278.50;;;11.40;20.50;;;;;;5056260;28;20445;-71
2022/11/11 11:22:51;;;;;;;383.33;351.57;;;11.50;19.50;;;;;;5054289;28;21011;-71
2022/11/11 11:25:21;;;;;;;481.00;440.87;;;11.60;20.10;;;;;;5057263;23;20533;-71
2022/11/11 11:27:50;;;;;;;398.53;363.80;;;11.80;19.60;;;;;;5037863;28;20411;-71
2022/11/11 11:30:24;;;;;;;276.17;253.10;;;11.80;19.60;;;;;;5036441;28;20414;-72
2022/11/11 11:33:01;;;;;;;571.83;524.17;;;11.80;19.10;;;;;;5035074;28;20398;-72
2022/11/11 11:35:41;;;;;;;365.87;334.87;;;11.80;18.90;;;;;;5037307;28;20429;-72
2022/11/11 11:38:08;;;;;;;549.13;504.77;;;11.80;19.60;;;;;;5037702;28;20414;-72
2022/11/11 11:41:03;;;;;;;265.73;244.77;;;11.70;19.50;;;;;;5037713;28;20415;-73
2022/11/11 11:43:44;;;;;;;491.63;450.83;;;11.70;19.50;;;;;;5032284;28;20428;-72
2022/11/11 11:46:36;;;;;;;609.50;560.10;;;11.80;19.60;;;;;;5034843;28;20432;-71
2022/11/11 11:49:19;;;;;;;526.77;483.97;;;11.90;19.70;;;;;;5035881;28;20410;-72
2022/11/11 11:52:31;;;;;;;424.17;389.57;;;11.80;19.60;;;;;;5035318;28;20414;-70
2022/11/11 11:55:17;;;;;;;444.20;407.30;;;11.70;19.50;;;;;;5026908;28;20479;-73
2022/11/11 11:57:52;;;;;;;643.77;591.33;;;11.60;19.40;;;;;;5036729;28;20473;-72
2022/11/11 12:00:21;;;;;;;436.37;402.33;;;11.50;19.90;;;;;;5037358;28;20412;-71
2022/11/11 12:03:05;;;;;;;643.90;592.17;;;11.50;20.60;;;;;;5035869;28;20480;-72
2022/11/11 12:05:37;;;;;;;641.87;590.10;;;11.50;20.40;;;;;;5036425;28;20439;-72
2022/11/11 12:08:21;;;;;;;274.53;250.73;;;11.60;20.10;;;;;;5034302;28;20450;-74
2022/11/11 12:10:55;;;;;;;321.97;298.73;;;11.70;19.50;;;;;;5033762;28;20491;-73
2022/11/11 12:13:45;;;;;;;286.93;262.03;;;11.90;19.70;;;;;;5033707;28;20403;-73
2022/11/11 12:16:18;;;;;;;216.63;200.27;;;12.00;18.80;;;;;;5035047;28;20465;-73
2022/11/11 12:19:00;;;;;;;297.97;277.33;;;12.10;18.40;;;;;;5037142;28;20410;-73
2022/11/11 12:21:31;;;;;;;519.53;478.50;;;12.20;18.90;;;;;;5036967;28;20859;-73
2022/11/11 12:24:17;;;;;;;595.97;548.00;;;12.30;18.30;;;;;;5036693;28;20449;-72
2022/11/11 12:26:53;;;;;;;462.07;426.53;;;12.40;18.10;;;;;;5035697;28;20771;-73
2022/11/11 12:29:28;;;;;;;300.00;280.07;;;12.70;18.20;;;;;;5036648;28;20412;-73
2022/11/11 12:32:12;;;;;;;332.87;311.10;;;12.90;18.40;;;;;;5036880;28;20408;-73
2022/11/11 12:34:46;;;;;;;601.83;551.77;;;13.10;17.20;;;;;;5038437;28;20861;-73
2022/11/11 12:37:12;;;;;;;475.80;436.50;;;13.10;16.80;;;;;;5040833;28;20461;-73
2022/11/11 12:40:20;;;;;;;656.10;603.47;;;13.10;16.70;;;;;;5040890;28;20428;-73
2022/11/11 12:43:16;;;;;;;540.83;498.33;;;13.20;16.90;;;;;;5040758;28;20171;-73
2022/11/11 12:46:11;;;;;;;645.93;594.17;;;13.20;16.30;;;;;;5040987;28;20916;-73
2022/11/11 12:48:46;;;;;;;559.43;511.03;;;13.20;16.30;;;;;;5038623;28;20443;-73
2022/11/11 12:51:26;;;;;;;651.50;597.67;;;13.20;16.30;;;;;;5040756;28;20412;-73
2022/11/11 12:54:04;;;;;;;608.90;560.77;;;13.20;16.00;;;;;;5035077;28;20430;-73
2022/11/11 12:56:35;;;;;;;599.13;554.97;;;13.10;16.50;;;;;;5034840;28;20457;-72
2022/11/11 12:59:22;;;;;;;598.10;554.93;;;13.00;16.10;;;;;;5034814;28;20488;-73
2022/11/11 13:02:20;;;;;;;665.17;614.00;;;12.90;16.60;;;;;;5034540;28;20789;-73
2022/11/11 13:04:54;;;;;;;360.40;333.53;;;13.00;16.30;;;;;;5031538;28;20471;-71
2022/11/11 13:07:35;;;;;;;539.73;501.73;;;13.00;16.20;;;;;;5034772;28;20409;-72
2022/11/11 13:10:26;;;;;;;313.53;289.77;;;13.00;16.10;;;;;;5034676;28;20451;-73
2022/11/11 13:13:02;;;;;;;601.27;556.63;;;13.00;16.40;;;;;;5034374;28;20769;-72
2022/11/11 13:15:28;;;;;;;592.23;550.10;;;13.00;16.10;;;;;;5033486;28;20954;-73
2022/11/11 13:17:53;;;;;;;559.90;518.80;;;13.00;16.40;;;;;;5034593;28;20504;-73
2022/11/11 13:20:34;;;;;;;722.93;666.07;;;13.00;17.20;;;;;;5034561;28;20835;-74
2022/11/11 13:23:00;;;;;;;656.43;608.60;;;12.90;17.30;;;;;;5034212;28;20171;-72
2022/11/11 13:25:31;;;;;;;646.70;598.87;;;12.90;17.00;;;;;;5034260;28;20825;-73
2022/11/11 13:28:23;;;;;;;729.47;675.07;;;12.80;17.30;;;;;;5034370;28;20172;-73
2022/11/11 13:30:54;;;;;;;571.33;528.47;;;12.80;17.40;;;;;;5032910;28;20503;-72
2022/11/11 13:33:23;;;;;;;534.17;495.67;;;12.70;17.30;;;;;;5032675;28;20409;-73
2022/11/11 13:35:53;;;;;;;747.20;691.83;;;12.80;17.30;;;;;;5034138;28;20990;-72
2022/11/11 13:38:36;;;;;;;571.43;529.57;;;12.70;17.40;;;;;;5033344;28;20449;-73
2022/11/11 13:41:11;;;;;;;576.60;534.60;;;12.70;17.50;;;;;;5034320;28;20435;-73
2022/11/11 13:43:46;;;;;;;467.70;433.50;;;12.80;17.00;;;;;;5034455;28;20765;-73
2022/11/11 13:46:29;;;;;;;608.37;564.80;;;12.80;17.30;;;;;;5033624;28;20500;-74
2022/11/11 13:48:55;;;;;;;626.00;579.40;;;12.90;16.80;;;;;;5032693;28;20422;-73